sensor_id;sensor_type;location;lat;lon;timestamp;P1;durP1;ratioP1;P2;durP2;ratioP2
3355;SDS011;1691;52.486;13.374;2022-09-01T00:02:30;1.37;;;0.97;;
3355;SDS011;1691;52.486;13.374;2022-09-01T00:04:59;1.33;;;0.83;;
3355;SDS011;1691;52.486;13.374;2022-09-01T00:07:27;2.37;;;1.00;;
3355;SDS011;1691;52.486;13.374;2022-09-01T00:09:56;1.10;;;1.00;;
3355;SDS011;1691;52.486;13.374;2022-09-01T00:12:25;1.10;;;1.00;;
3355;SDS011;1691;52.486;13.374;2022-09-01T00:14:53;1.20;;;1.10;;
3355;SDS011;1691;52.486;13.374;2022-09-01T00:17:20;1.17;;;0.97;;
3355;SDS011;1691;52.486;13.374;2022-09-01T00:19:48;1.50;;;0.80;;
3355;SDS011;1691;52.486;13.374;2022-09-01T00:22:15;1.63;;;0.93;;
3355;SDS011;1691;52.486;13.374;2022-09-01T00:24:42;2.40;;;1.20;;
3355;SDS011;1691;52.486;13.374;2022-09-01T00:27:09;1.03;;;0.93;;
3355;SDS011;1691;52.486;13.374;2022-09-01T00:29:38;1.47;;;0.90;;
3355;SDS011;1691;52.486;13.374;2022-09-01T00:32:09;1.00;;;0.80;;
3355;SDS011;1691;52.486;13.374;2022-09-01T00:34:37;3.67;;;0.80;;
3355;SDS011;1691;52.486;13.374;2022-09-01T00:37:04;1.77;;;1.00;;
3355;SDS011;1691;52.486;13.374;2022-09-01T00:39:32;1.03;;;0.93;;
3355;SDS011;1691;52.486;13.374;2022-09-01T00:41:59;1.87;;;0.90;;
3355;SDS011;1691;52.486;13.374;2022-09-01T00:44:27;1.20;;;1.10;;
3355;SDS011;1691;52.486;13.374;2022-09-01T00:46:56;2.47;;;1.10;;
3355;SDS011;1691;52.486;13.374;2022-09-01T00:49:33;1.20;;;1.10;;
3355;SDS011;1691;52.486;13.374;2022-09-01T00:52:09;1.30;;;1.20;;
3355;SDS011;1691;52.486;13.374;2022-09-01T00:54:50;1.20;;;0.83;;
3355;SDS011;1691;52.486;13.374;2022-09-01T00:57:23;0.87;;;0.77;;
3355;SDS011;1691;52.486;13.374;2022-09-01T00:59:52;1.40;;;1.30;;
3355;SDS011;1691;52.486;13.374;2022-09-01T01:02:24;2.03;;;1.00;;
3355;SDS011;1691;52.486;13.374;2022-09-01T01:04:52;1.97;;;0.80;;
3355;SDS011;1691;52.486;13.374;2022-09-01T01:07:21;1.00;;;0.90;;
3355;SDS011;1691;52.486;13.374;2022-09-01T01:09:49;1.67;;;1.57;;
3355;SDS011;1691;52.486;13.374;2022-09-01T01:12:17;2.40;;;0.97;;
3355;SDS011;1691;52.486;13.374;2022-09-01T01:14:45;1.00;;;0.80;;
3355;SDS011;1691;52.486;13.374;2022-09-01T01:17:20;1.43;;;1.33;;
3355;SDS011;1691;52.486;13.374;2022-09-01T01:19:52;3.33;;;1.13;;
3355;SDS011;1691;52.486;13.374;2022-09-01T01:25:52;1.00;;;0.83;;
3355;SDS011;1691;52.486;13.374;2022-09-01T01:28:27;0.80;;;0.70;;
3355;SDS011;1691;52.486;13.374;2022-09-01T01:31:03;1.00;;;0.87;;
3355;SDS011;1691;52.486;13.374;2022-09-01T01:38:52;1.03;;;0.87;;
3355;SDS011;1691;52.486;13.374;2022-09-01T01:41:20;0.80;;;0.70;;
3355;SDS011;1691;52.486;13.374;2022-09-01T01:43:49;3.23;;;2.67;;
3355;SDS011;1691;52.486;13.374;2022-09-01T01:46:16;1.10;;;1.00;;
3355;SDS011;1691;52.486;13.374;2022-09-01T01:48:45;0.80;;;0.80;;
3355;SDS011;1691;52.486;13.374;2022-09-01T01:51:13;1.77;;;1.20;;
3355;SDS011;1691;52.486;13.374;2022-09-01T01:53:53;1.80;;;1.27;;
3355;SDS011;1691;52.486;13.374;2022-09-01T01:56:21;3.33;;;1.07;;
3355;SDS011;1691;52.486;13.374;2022-09-01T01:58:53;1.47;;;0.90;;
3355;SDS011;1691;52.486;13.374;2022-09-01T02:01:23;2.00;;;1.00;;
3355;SDS011;1691;52.486;13.374;2022-09-01T02:03:55;2.20;;;0.80;;
3355;SDS011;1691;52.486;13.374;2022-09-01T02:06:26;1.10;;;1.00;;
3355;SDS011;1691;52.486;13.374;2022-09-01T02:08:55;1.37;;;0.80;;
3355;SDS011;1691;52.486;13.374;2022-09-01T02:11:23;2.80;;;0.80;;
3355;SDS011;1691;52.486;13.374;2022-09-01T02:13:52;3.33;;;0.93;;
3355;SDS011;1691;52.486;13.374;2022-09-01T02:16:24;1.20;;;1.10;;
3355;SDS011;1691;52.486;13.374;2022-09-01T02:18:55;1.80;;;1.10;;
3355;SDS011;1691;52.486;13.374;2022-09-01T02:21:22;5.43;;;1.30;;
3355;SDS011;1691;52.486;13.374;2022-09-01T02:23:56;1.67;;;0.83;;
3355;SDS011;1691;52.486;13.374;2022-09-01T02:26:33;2.90;;;1.13;;
3355;SDS011;1691;52.486;13.374;2022-09-01T02:29:12;1.20;;;0.90;;
3355;SDS011;1691;52.486;13.374;2022-09-01T02:31:48;2.50;;;1.00;;
3355;SDS011;1691;52.486;13.374;2022-09-01T02:34:19;1.37;;;1.10;;
3355;SDS011;1691;52.486;13.374;2022-09-01T02:36:51;1.57;;;0.90;;
3355;SDS011;1691;52.486;13.374;2022-09-01T02:39:25;0.97;;;0.83;;
3355;SDS011;1691;52.486;13.374;2022-09-01T02:41:54;2.70;;;1.17;;
3355;SDS011;1691;52.486;13.374;2022-09-01T02:44:21;2.17;;;1.27;;
3355;SDS011;1691;52.486;13.374;2022-09-01T02:46:48;0.90;;;0.73;;
3355;SDS011;1691;52.486;13.374;2022-09-01T02:49:18;4.00;;;0.90;;
3355;SDS011;1691;52.486;13.374;2022-09-01T02:51:54;5.07;;;1.23;;
3355;SDS011;1691;52.486;13.374;2022-09-01T02:54:27;1.10;;;1.00;;
3355;SDS011;1691;52.486;13.374;2022-09-01T02:56:56;1.47;;;1.00;;
3355;SDS011;1691;52.486;13.374;2022-09-01T02:59:24;1.10;;;0.97;;
3355;SDS011;1691;52.486;13.374;2022-09-01T03:01:54;2.13;;;1.00;;
3355;SDS011;1691;52.486;13.374;2022-09-01T03:04:23;1.20;;;1.10;;
3355;SDS011;1691;52.486;13.374;2022-09-01T03:06:52;1.57;;;1.00;;
3355;SDS011;1691;52.486;13.374;2022-09-01T03:09:20;1.40;;;1.23;;
3355;SDS011;1691;52.486;13.374;2022-09-01T03:11:49;2.37;;;1.60;;
3355;SDS011;1691;52.486;13.374;2022-09-01T03:14:18;1.93;;;1.30;;
3355;SDS011;1691;52.486;13.374;2022-09-01T03:16:47;1.47;;;1.37;;
3355;SDS011;1691;52.486;13.374;2022-09-01T03:19:15;5.70;;;1.10;;
3355;SDS011;1691;52.486;13.374;2022-09-01T03:21:44;1.60;;;1.47;;
3355;SDS011;1691;52.486;13.374;2022-09-01T03:24:12;5.57;;;2.33;;
3355;SDS011;1691;52.486;13.374;2022-09-01T03:26:43;4.63;;;1.43;;
3355;SDS011;1691;52.486;13.374;2022-09-01T03:29:16;1.67;;;1.10;;
3355;SDS011;1691;52.486;13.374;2022-09-01T03:31:44;8.33;;;1.27;;
3355;SDS011;1691;52.486;13.374;2022-09-01T03:34:12;1.43;;;1.33;;
3355;SDS011;1691;52.486;13.374;2022-09-01T03:36:41;1.70;;;1.60;;
3355;SDS011;1691;52.486;13.374;2022-09-01T03:39:16;1.73;;;1.63;;
3355;SDS011;1691;52.486;13.374;2022-09-01T03:41:44;3.27;;;2.27;;
3355;SDS011;1691;52.486;13.374;2022-09-01T03:44:13;1.73;;;1.63;;
3355;SDS011;1691;52.486;13.374;2022-09-01T03:46:41;1.77;;;1.67;;
3355;SDS011;1691;52.486;13.374;2022-09-01T03:49:10;1.50;;;1.40;;
3355;SDS011;1691;52.486;13.374;2022-09-01T03:51:42;2.20;;;1.50;;
3355;SDS011;1691;52.486;13.374;2022-09-01T03:54:10;2.70;;;2.47;;
3355;SDS011;1691;52.486;13.374;2022-09-01T03:56:38;1.60;;;1.17;;
3355;SDS011;1691;52.486;13.374;2022-09-01T03:59:07;2.47;;;1.57;;
3355;SDS011;1691;52.486;13.374;2022-09-01T04:01:43;2.33;;;2.03;;
3355;SDS011;1691;52.486;13.374;2022-09-01T04:04:11;1.60;;;1.40;;
3355;SDS011;1691;52.486;13.374;2022-09-01T04:06:40;1.40;;;1.30;;
3355;SDS011;1691;52.486;13.374;2022-09-01T04:09:10;3.13;;;2.00;;
3355;SDS011;1691;52.486;13.374;2022-09-01T04:11:38;3.40;;;3.10;;
3355;SDS011;1691;52.486;13.374;2022-09-01T04:14:11;3.83;;;2.47;;
3355;SDS011;1691;52.486;13.374;2022-09-01T04:16:38;2.10;;;1.80;;
3355;SDS011;1691;52.486;13.374;2022-09-01T04:19:24;4.60;;;3.23;;
3355;SDS011;1691;52.486;13.374;2022-09-01T04:21:52;2.33;;;2.23;;
3355;SDS011;1691;52.486;13.374;2022-09-01T04:24:26;8.70;;;2.70;;
3355;SDS011;1691;52.486;13.374;2022-09-01T04:26:56;2.23;;;2.03;;
3355;SDS011;1691;52.486;13.374;2022-09-01T04:29:28;5.40;;;2.70;;
3355;SDS011;1691;52.486;13.374;2022-09-01T04:32:05;2.03;;;1.93;;
3355;SDS011;1691;52.486;13.374;2022-09-01T04:34:38;7.90;;;2.57;;
3355;SDS011;1691;52.486;13.374;2022-09-01T04:37:10;3.67;;;2.27;;
3355;SDS011;1691;52.486;13.374;2022-09-01T04:39:50;2.80;;;2.10;;
3355;SDS011;1691;52.486;13.374;2022-09-01T04:42:22;2.10;;;2.00;;
3355;SDS011;1691;52.486;13.374;2022-09-01T04:44:54;3.83;;;2.60;;
3355;SDS011;1691;52.486;13.374;2022-09-01T04:47:23;3.53;;;2.87;;
3355;SDS011;1691;52.486;13.374;2022-09-01T04:50:02;4.33;;;2.23;;
3355;SDS011;1691;52.486;13.374;2022-09-01T04:52:39;8.30;;;2.70;;
3355;SDS011;1691;52.486;13.374;2022-09-01T04:55:08;2.10;;;2.00;;
3355;SDS011;1691;52.486;13.374;2022-09-01T04:57:46;6.73;;;1.90;;
3355;SDS011;1691;52.486;13.374;2022-09-01T05:00:15;6.40;;;2.10;;
3355;SDS011;1691;52.486;13.374;2022-09-01T05:02:55;1.50;;;1.40;;
3355;SDS011;1691;52.486;13.374;2022-09-01T05:05:43;1.60;;;1.50;;
3355;SDS011;1691;52.486;13.374;2022-09-01T05:08:12;1.53;;;1.40;;
3355;SDS011;1691;52.486;13.374;2022-09-01T05:10:50;5.20;;;1.23;;
3355;SDS011;1691;52.486;13.374;2022-09-01T05:13:21;2.20;;;1.07;;
3355;SDS011;1691;52.486;13.374;2022-09-01T05:15:58;3.23;;;1.27;;
3355;SDS011;1691;52.486;13.374;2022-09-01T05:18:31;2.63;;;1.70;;
3355;SDS011;1691;52.486;13.374;2022-09-01T05:21:03;5.03;;;1.77;;
3355;SDS011;1691;52.486;13.374;2022-09-01T05:23:39;1.20;;;1.10;;
3355;SDS011;1691;52.486;13.374;2022-09-01T05:26:13;10.23;;;1.03;;
3355;SDS011;1691;52.486;13.374;2022-09-01T05:28:47;5.93;;;1.40;;
3355;SDS011;1691;52.486;13.374;2022-09-01T05:31:24;1.20;;;1.10;;
3355;SDS011;1691;52.486;13.374;2022-09-01T05:33:54;3.20;;;1.60;;
3355;SDS011;1691;52.486;13.374;2022-09-01T05:36:23;7.17;;;1.37;;
3355;SDS011;1691;52.486;13.374;2022-09-01T05:38:52;3.00;;;1.50;;
3355;SDS011;1691;52.486;13.374;2022-09-01T05:41:19;4.40;;;0.90;;
3355;SDS011;1691;52.486;13.374;2022-09-01T05:43:49;8.00;;;1.37;;
3355;SDS011;1691;52.486;13.374;2022-09-01T05:46:25;1.60;;;1.30;;
3355;SDS011;1691;52.486;13.374;2022-09-01T05:48:53;1.57;;;1.40;;
3355;SDS011;1691;52.486;13.374;2022-09-01T05:51:23;1.03;;;0.80;;
3355;SDS011;1691;52.486;13.374;2022-09-01T05:54:11;2.23;;;1.03;;
3355;SDS011;1691;52.486;13.374;2022-09-01T05:56:40;1.47;;;1.20;;
3355;SDS011;1691;52.486;13.374;2022-09-01T05:59:10;1.20;;;1.10;;
3355;SDS011;1691;52.486;13.374;2022-09-01T06:01:49;1.33;;;1.07;;
3355;SDS011;1691;52.486;13.374;2022-09-01T06:04:17;1.60;;;1.30;;
3355;SDS011;1691;52.486;13.374;2022-09-01T06:06:45;2.35;;;1.40;;
3355;SDS011;1691;52.486;13.374;2022-09-01T06:09:31;2.20;;;1.15;;
3355;SDS011;1691;52.486;13.374;2022-09-01T06:11:58;2.57;;;1.27;;
3355;SDS011;1691;52.486;13.374;2022-09-01T06:14:27;2.70;;;1.13;;
3355;SDS011;1691;52.486;13.374;2022-09-01T06:16:55;1.50;;;1.03;;
3355;SDS011;1691;52.486;13.374;2022-09-01T06:19:22;1.47;;;1.37;;
3355;SDS011;1691;52.486;13.374;2022-09-01T06:21:49;2.60;;;1.00;;
3355;SDS011;1691;52.486;13.374;2022-09-01T06:24:16;2.83;;;0.70;;
3355;SDS011;1691;52.486;13.374;2022-09-01T06:26:43;2.53;;;0.90;;
3355;SDS011;1691;52.486;13.374;2022-09-01T06:29:11;2.93;;;0.87;;
3355;SDS011;1691;52.486;13.374;2022-09-01T06:31:41;2.60;;;1.27;;
3355;SDS011;1691;52.486;13.374;2022-09-01T06:34:11;3.37;;;1.10;;
3355;SDS011;1691;52.486;13.374;2022-09-01T06:36:43;4.13;;;1.07;;
3355;SDS011;1691;52.486;13.374;2022-09-01T06:39:11;1.50;;;0.77;;
3355;SDS011;1691;52.486;13.374;2022-09-01T06:41:48;1.70;;;1.17;;
3355;SDS011;1691;52.486;13.374;2022-09-01T06:44:18;1.40;;;0.80;;
3355;SDS011;1691;52.486;13.374;2022-09-01T06:46:48;7.00;;;0.90;;
3355;SDS011;1691;52.486;13.374;2022-09-01T06:49:19;1.20;;;0.90;;
3355;SDS011;1691;52.486;13.374;2022-09-01T06:51:48;1.90;;;0.90;;
3355;SDS011;1691;52.486;13.374;2022-09-01T06:54:18;2.40;;;0.90;;
3355;SDS011;1691;52.486;13.374;2022-09-01T06:56:46;2.40;;;0.90;;
3355;SDS011;1691;52.486;13.374;2022-09-01T06:59:33;1.20;;;0.60;;
3355;SDS011;1691;52.486;13.374;2022-09-01T07:02:01;1.87;;;0.87;;
3355;SDS011;1691;52.486;13.374;2022-09-01T07:04:31;1.30;;;0.80;;
3355;SDS011;1691;52.486;13.374;2022-09-01T07:07:01;1.10;;;0.80;;
3355;SDS011;1691;52.486;13.374;2022-09-01T07:09:53;1.13;;;1.00;;
3355;SDS011;1691;52.486;13.374;2022-09-01T07:12:40;1.23;;;0.70;;
3355;SDS011;1691;52.486;13.374;2022-09-01T07:15:31;6.03;;;0.53;;
3355;SDS011;1691;52.486;13.374;2022-09-01T07:18:24;1.43;;;0.80;;
3355;SDS011;1691;52.486;13.374;2022-09-01T07:20:53;3.10;;;0.83;;
3355;SDS011;1691;52.486;13.374;2022-09-01T07:23:40;3.23;;;0.73;;
3355;SDS011;1691;52.486;13.374;2022-09-01T07:26:28;1.83;;;0.77;;
3355;SDS011;1691;52.486;13.374;2022-09-01T07:28:57;1.70;;;0.77;;
3355;SDS011;1691;52.486;13.374;2022-09-01T07:31:30;5.60;;;0.50;;
3355;SDS011;1691;52.486;13.374;2022-09-01T07:34:25;6.40;;;0.90;;
3355;SDS011;1691;52.486;13.374;2022-09-01T07:37:13;1.17;;;0.80;;
3355;SDS011;1691;52.486;13.374;2022-09-01T07:40:01;1.67;;;0.80;;
3355;SDS011;1691;52.486;13.374;2022-09-01T07:42:54;1.15;;;0.90;;
3355;SDS011;1691;52.486;13.374;2022-09-01T07:45:38;2.27;;;0.70;;
3355;SDS011;1691;52.486;13.374;2022-09-01T07:48:34;1.57;;;0.80;;
3355;SDS011;1691;52.486;13.374;2022-09-01T07:51:22;1.07;;;0.90;;
3355;SDS011;1691;52.486;13.374;2022-09-01T07:54:07;4.37;;;0.97;;
3355;SDS011;1691;52.486;13.374;2022-09-01T07:56:37;0.90;;;0.67;;
3355;SDS011;1691;52.486;13.374;2022-09-01T07:59:06;1.00;;;0.80;;
3355;SDS011;1691;52.486;13.374;2022-09-01T08:01:40;1.00;;;0.50;;
3355;SDS011;1691;52.486;13.374;2022-09-01T08:04:08;2.97;;;0.60;;
3355;SDS011;1691;52.486;13.374;2022-09-01T08:06:35;0.90;;;0.70;;
3355;SDS011;1691;52.486;13.374;2022-09-01T08:09:04;1.77;;;0.60;;
3355;SDS011;1691;52.486;13.374;2022-09-01T08:11:36;0.90;;;0.70;;
3355;SDS011;1691;52.486;13.374;2022-09-01T08:14:23;1.30;;;0.63;;
3355;SDS011;1691;52.486;13.374;2022-09-01T08:16:50;3.63;;;0.80;;
3355;SDS011;1691;52.486;13.374;2022-09-01T08:19:18;2.27;;;0.83;;
3355;SDS011;1691;52.486;13.374;2022-09-01T08:21:45;1.23;;;0.50;;
3355;SDS011;1691;52.486;13.374;2022-09-01T08:24:12;1.93;;;0.83;;
3355;SDS011;1691;52.486;13.374;2022-09-01T08:26:39;1.30;;;0.80;;
3355;SDS011;1691;52.486;13.374;2022-09-01T08:29:07;0.87;;;0.60;;
3355;SDS011;1691;52.486;13.374;2022-09-01T08:31:34;0.80;;;0.60;;
3355;SDS011;1691;52.486;13.374;2022-09-01T08:34:02;0.90;;;0.63;;
3355;SDS011;1691;52.486;13.374;2022-09-01T08:36:30;1.30;;;0.50;;
3355;SDS011;1691;52.486;13.374;2022-09-01T08:38:58;0.80;;;0.57;;
3355;SDS011;1691;52.486;13.374;2022-09-01T08:44:32;1.47;;;0.60;;
3355;SDS011;1691;52.486;13.374;2022-09-01T08:47:20;0.80;;;0.60;;
3355;SDS011;1691;52.486;13.374;2022-09-01T08:50:07;1.33;;;0.60;;
3355;SDS011;1691;52.486;13.374;2022-09-01T08:52:38;0.90;;;0.60;;
3355;SDS011;1691;52.486;13.374;2022-09-01T08:55:44;1.00;;;0.60;;
3355;SDS011;1691;52.486;13.374;2022-09-01T08:58:17;0.80;;;0.50;;
3355;SDS011;1691;52.486;13.374;2022-09-01T09:00:45;3.90;;;0.57;;
3355;SDS011;1691;52.486;13.374;2022-09-01T09:09:08;0.80;;;0.60;;
3355;SDS011;1691;52.486;13.374;2022-09-01T09:14:41;1.73;;;0.60;;
3355;SDS011;1691;52.486;13.374;2022-09-01T09:17:53;0.90;;;0.60;;
3355;SDS011;1691;52.486;13.374;2022-09-01T09:20:45;0.80;;;0.60;;
3355;SDS011;1691;52.486;13.374;2022-09-01T09:23:22;0.80;;;0.60;;
3355;SDS011;1691;52.486;13.374;2022-09-01T09:25:55;1.50;;;1.00;;
3355;SDS011;1691;52.486;13.374;2022-09-01T09:28:22;11.07;;;1.27;;
3355;SDS011;1691;52.486;13.374;2022-09-01T09:30:51;36.50;;;2.40;;
3355;SDS011;1691;52.486;13.374;2022-09-01T09:33:58;5.53;;;0.60;;
3355;SDS011;1691;52.486;13.374;2022-09-01T09:36:33;1.80;;;0.50;;
3355;SDS011;1691;52.486;13.374;2022-09-01T09:39:03;13.00;;;0.80;;
3355;SDS011;1691;52.486;13.374;2022-09-01T09:41:42;1.83;;;0.80;;
3355;SDS011;1691;52.486;13.374;2022-09-01T09:44:39;1.00;;;0.70;;
3355;SDS011;1691;52.486;13.374;2022-09-01T09:47:34;4.10;;;0.60;;
3355;SDS011;1691;52.486;13.374;2022-09-01T09:50:26;0.80;;;0.57;;
3355;SDS011;1691;52.486;13.374;2022-09-01T09:53:11;3.23;;;0.50;;
3355;SDS011;1691;52.486;13.374;2022-09-01T09:55:51;0.90;;;0.40;;
3355;SDS011;1691;52.486;13.374;2022-09-01T09:58:38;0.93;;;0.70;;
3355;SDS011;1691;52.486;13.374;2022-09-01T10:01:10;2.40;;;0.70;;
3355;SDS011;1691;52.486;13.374;2022-09-01T10:03:57;0.80;;;0.60;;
3355;SDS011;1691;52.486;13.374;2022-09-01T10:09:03;2.03;;;0.90;;
3355;SDS011;1691;52.486;13.374;2022-09-01T10:11:51;10.23;;;0.60;;
3355;SDS011;1691;52.486;13.374;2022-09-01T10:14:45;1.70;;;0.67;;
3355;SDS011;1691;52.486;13.374;2022-09-01T10:17:45;2.60;;;0.80;;
3355;SDS011;1691;52.486;13.374;2022-09-01T10:20:22;2.80;;;0.60;;
3355;SDS011;1691;52.486;13.374;2022-09-01T10:22:51;3.37;;;0.70;;
3355;SDS011;1691;52.486;13.374;2022-09-01T10:25:21;2.00;;;0.80;;
3355;SDS011;1691;52.486;13.374;2022-09-01T10:27:58;1.57;;;0.70;;
3355;SDS011;1691;52.486;13.374;2022-09-01T10:30:45;1.27;;;1.00;;
3355;SDS011;1691;52.486;13.374;2022-09-01T10:33:15;1.43;;;0.60;;
3355;SDS011;1691;52.486;13.374;2022-09-01T10:35:47;0.90;;;0.70;;
3355;SDS011;1691;52.486;13.374;2022-09-01T10:38:23;3.63;;;0.70;;
3355;SDS011;1691;52.486;13.374;2022-09-01T10:40:56;3.90;;;0.50;;
3355;SDS011;1691;52.486;13.374;2022-09-01T10:43:47;0.90;;;0.50;;
3355;SDS011;1691;52.486;13.374;2022-09-01T10:49:02;2.90;;;0.70;;
3355;SDS011;1691;52.486;13.374;2022-09-01T10:51:55;0.97;;;0.70;;
3355;SDS011;1691;52.486;13.374;2022-09-01T10:55:15;3.23;;;0.80;;
3355;SDS011;1691;52.486;13.374;2022-09-01T10:57:43;0.90;;;0.70;;
3355;SDS011;1691;52.486;13.374;2022-09-01T11:00:48;1.90;;;0.73;;
3355;SDS011;1691;52.486;13.374;2022-09-01T11:03:38;2.67;;;0.70;;
3355;SDS011;1691;52.486;13.374;2022-09-01T11:09:39;0.80;;;0.50;;
3355;SDS011;1691;52.486;13.374;2022-09-01T11:23:06;1.07;;;0.60;;
3355;SDS011;1691;52.486;13.374;2022-09-01T11:26:03;1.93;;;0.60;;
3355;SDS011;1691;52.486;13.374;2022-09-01T11:28:59;2.87;;;1.00;;
3355;SDS011;1691;52.486;13.374;2022-09-01T11:31:44;0.80;;;0.60;;
3355;SDS011;1691;52.486;13.374;2022-09-01T11:34:19;1.23;;;0.73;;
3355;SDS011;1691;52.486;13.374;2022-09-01T11:36:53;3.00;;;0.83;;
3355;SDS011;1691;52.486;13.374;2022-09-01T11:39:37;1.60;;;0.90;;
3355;SDS011;1691;52.486;13.374;2022-09-01T11:44:48;1.00;;;0.60;;
3355;SDS011;1691;52.486;13.374;2022-09-01T11:47:37;6.80;;;1.00;;
3355;SDS011;1691;52.486;13.374;2022-09-01T11:50:26;0.90;;;0.70;;
3355;SDS011;1691;52.486;13.374;2022-09-01T11:53:06;1.03;;;0.60;;
3355;SDS011;1691;52.486;13.374;2022-09-01T11:55:49;3.10;;;0.70;;
3355;SDS011;1691;52.486;13.374;2022-09-01T11:58:29;1.27;;;0.60;;
3355;SDS011;1691;52.486;13.374;2022-09-01T12:01:12;1.10;;;0.60;;
3355;SDS011;1691;52.486;13.374;2022-09-01T12:03:49;3.10;;;0.67;;
3355;SDS011;1691;52.486;13.374;2022-09-01T12:06:22;1.57;;;0.73;;
3355;SDS011;1691;52.486;13.374;2022-09-01T12:08:54;1.00;;;0.73;;
3355;SDS011;1691;52.486;13.374;2022-09-01T12:11:28;0.80;;;0.60;;
3355;SDS011;1691;52.486;13.374;2022-09-01T12:14:07;4.20;;;0.80;;
3355;SDS011;1691;52.486;13.374;2022-09-01T12:16:38;1.83;;;0.70;;
3355;SDS011;1691;52.486;13.374;2022-09-01T12:19:21;1.10;;;0.80;;
3355;SDS011;1691;52.486;13.374;2022-09-01T12:21:59;1.40;;;1.27;;
3355;SDS011;1691;52.486;13.374;2022-09-01T12:24:34;2.90;;;0.90;;
3355;SDS011;1691;52.486;13.374;2022-09-01T12:27:02;0.80;;;0.60;;
3355;SDS011;1691;52.486;13.374;2022-09-01T12:29:30;1.40;;;0.60;;
3355;SDS011;1691;52.486;13.374;2022-09-01T12:31:58;1.30;;;1.00;;
3355;SDS011;1691;52.486;13.374;2022-09-01T12:44:54;0.87;;;0.70;;
3355;SDS011;1691;52.486;13.374;2022-09-01T12:52:34;1.07;;;0.90;;
3355;SDS011;1691;52.486;13.374;2022-09-01T12:55:15;4.20;;;0.93;;
3355;SDS011;1691;52.486;13.374;2022-09-01T12:58:11;1.10;;;1.00;;
3355;SDS011;1691;52.486;13.374;2022-09-01T13:00:57;1.20;;;1.10;;
3355;SDS011;1691;52.486;13.374;2022-09-01T13:04:04;4.07;;;0.73;;
3355;SDS011;1691;52.486;13.374;2022-09-01T13:06:33;1.07;;;0.87;;
3355;SDS011;1691;52.486;13.374;2022-09-01T13:09:00;8.63;;;0.80;;
3355;SDS011;1691;52.486;13.374;2022-09-01T13:11:27;0.90;;;0.70;;
3355;SDS011;1691;52.486;13.374;2022-09-01T13:14:15;1.07;;;0.80;;
3355;SDS011;1691;52.486;13.374;2022-09-01T13:16:42;3.17;;;0.80;;
3355;SDS011;1691;52.486;13.374;2022-09-01T13:19:09;2.50;;;1.83;;
3355;SDS011;1691;52.486;13.374;2022-09-01T13:21:36;4.13;;;0.70;;
3355;SDS011;1691;52.486;13.374;2022-09-01T13:24:09;0.90;;;0.70;;
3355;SDS011;1691;52.486;13.374;2022-09-01T13:26:36;1.40;;;0.80;;
3355;SDS011;1691;52.486;13.374;2022-09-01T13:29:03;5.60;;;1.53;;
3355;SDS011;1691;52.486;13.374;2022-09-01T13:31:30;1.53;;;0.60;;
3355;SDS011;1691;52.486;13.374;2022-09-01T13:33:59;2.70;;;0.70;;
3355;SDS011;1691;52.486;13.374;2022-09-01T13:36:46;1.10;;;0.70;;
3355;SDS011;1691;52.486;13.374;2022-09-01T13:39:18;0.90;;;0.60;;
3355;SDS011;1691;52.486;13.374;2022-09-01T13:41:46;0.90;;;0.73;;
3355;SDS011;1691;52.486;13.374;2022-09-01T13:44:15;1.00;;;0.70;;
3355;SDS011;1691;52.486;13.374;2022-09-01T13:46:44;5.53;;;0.80;;
3355;SDS011;1691;52.486;13.374;2022-09-01T13:49:31;2.40;;;0.87;;
3355;SDS011;1691;52.486;13.374;2022-09-01T13:52:09;1.10;;;0.60;;
3355;SDS011;1691;52.486;13.374;2022-09-01T13:54:38;4.90;;;0.90;;
3355;SDS011;1691;52.486;13.374;2022-09-01T13:57:05;0.90;;;0.70;;
3355;SDS011;1691;52.486;13.374;2022-09-01T13:59:32;1.00;;;0.73;;
3355;SDS011;1691;52.486;13.374;2022-09-01T14:01:59;1.90;;;1.20;;
3355;SDS011;1691;52.486;13.374;2022-09-01T14:04:27;1.97;;;0.90;;
3355;SDS011;1691;52.486;13.374;2022-09-01T14:06:54;3.73;;;1.00;;
3355;SDS011;1691;52.486;13.374;2022-09-01T14:09:23;3.00;;;1.10;;
3355;SDS011;1691;52.486;13.374;2022-09-01T14:11:51;0.90;;;0.70;;
3355;SDS011;1691;52.486;13.374;2022-09-01T14:14:20;0.93;;;0.77;;
3355;SDS011;1691;52.486;13.374;2022-09-01T14:16:48;1.63;;;1.07;;
3355;SDS011;1691;52.486;13.374;2022-09-01T14:19:15;1.73;;;0.73;;
3355;SDS011;1691;52.486;13.374;2022-09-01T14:21:43;3.00;;;0.90;;
3355;SDS011;1691;52.486;13.374;2022-09-01T14:24:11;0.90;;;0.80;;
3355;SDS011;1691;52.486;13.374;2022-09-01T14:26:39;1.30;;;1.00;;
3355;SDS011;1691;52.486;13.374;2022-09-01T14:29:07;1.07;;;0.93;;
3355;SDS011;1691;52.486;13.374;2022-09-01T14:31:34;0.80;;;0.60;;
3355;SDS011;1691;52.486;13.374;2022-09-01T14:34:03;0.90;;;0.70;;
3355;SDS011;1691;52.486;13.374;2022-09-01T14:36:31;1.93;;;0.50;;
3355;SDS011;1691;52.486;13.374;2022-09-01T14:38:59;2.70;;;0.90;;
3355;SDS011;1691;52.486;13.374;2022-09-01T14:41:27;2.23;;;0.93;;
3355;SDS011;1691;52.486;13.374;2022-09-01T14:43:54;1.30;;;0.70;;
3355;SDS011;1691;52.486;13.374;2022-09-01T14:46:28;1.03;;;0.80;;
3355;SDS011;1691;52.486;13.374;2022-09-01T14:49:00;1.00;;;0.70;;
3355;SDS011;1691;52.486;13.374;2022-09-01T14:51:28;6.90;;;0.80;;
3355;SDS011;1691;52.486;13.374;2022-09-01T14:54:17;1.20;;;0.80;;
3355;SDS011;1691;52.486;13.374;2022-09-01T14:56:44;10.63;;;0.87;;
3355;SDS011;1691;52.486;13.374;2022-09-01T14:59:31;1.67;;;0.83;;
3355;SDS011;1691;52.486;13.374;2022-09-01T15:01:59;7.30;;;0.70;;
3355;SDS011;1691;52.486;13.374;2022-09-01T15:04:26;1.30;;;0.90;;
3355;SDS011;1691;52.486;13.374;2022-09-01T15:06:54;0.90;;;0.73;;
3355;SDS011;1691;52.486;13.374;2022-09-01T15:09:21;2.63;;;2.43;;
3355;SDS011;1691;52.486;13.374;2022-09-01T15:11:48;1.00;;;0.80;;
3355;SDS011;1691;52.486;13.374;2022-09-01T15:14:15;1.47;;;0.90;;
3355;SDS011;1691;52.486;13.374;2022-09-01T15:16:43;1.07;;;0.80;;
3355;SDS011;1691;52.486;13.374;2022-09-01T15:19:12;0.90;;;0.77;;
3355;SDS011;1691;52.486;13.374;2022-09-01T15:21:40;1.10;;;0.80;;
3355;SDS011;1691;52.486;13.374;2022-09-01T15:24:09;1.33;;;0.93;;
3355;SDS011;1691;52.486;13.374;2022-09-01T15:26:38;4.00;;;1.27;;
3355;SDS011;1691;52.486;13.374;2022-09-01T15:29:10;2.40;;;0.80;;
3355;SDS011;1691;52.486;13.374;2022-09-01T15:31:38;0.93;;;0.80;;
3355;SDS011;1691;52.486;13.374;2022-09-01T15:34:07;4.20;;;0.90;;
3355;SDS011;1691;52.486;13.374;2022-09-01T15:36:36;1.40;;;1.10;;
3355;SDS011;1691;52.486;13.374;2022-09-01T15:39:05;0.93;;;0.80;;
3355;SDS011;1691;52.486;13.374;2022-09-01T15:41:34;0.93;;;0.83;;
3355;SDS011;1691;52.486;13.374;2022-09-01T15:44:03;0.90;;;0.70;;
3355;SDS011;1691;52.486;13.374;2022-09-01T15:46:32;2.10;;;1.10;;
3355;SDS011;1691;52.486;13.374;2022-09-01T15:49:03;1.00;;;0.90;;
3355;SDS011;1691;52.486;13.374;2022-09-01T15:51:34;1.10;;;0.80;;
3355;SDS011;1691;52.486;13.374;2022-09-01T15:54:09;0.97;;;0.87;;
3355;SDS011;1691;52.486;13.374;2022-09-01T15:56:42;0.80;;;0.57;;
3355;SDS011;1691;52.486;13.374;2022-09-01T15:59:10;1.00;;;0.90;;
3355;SDS011;1691;52.486;13.374;2022-09-01T16:01:39;3.10;;;0.93;;
3355;SDS011;1691;52.486;13.374;2022-09-01T16:04:11;1.20;;;0.90;;
3355;SDS011;1691;52.486;13.374;2022-09-01T16:06:47;0.90;;;0.77;;
3355;SDS011;1691;52.486;13.374;2022-09-01T16:09:15;0.80;;;0.70;;
3355;SDS011;1691;52.486;13.374;2022-09-01T16:11:43;3.40;;;1.10;;
3355;SDS011;1691;52.486;13.374;2022-09-01T16:14:10;1.37;;;0.70;;
3355;SDS011;1691;52.486;13.374;2022-09-01T16:22:22;15.27;;;2.33;;
3355;SDS011;1691;52.486;13.374;2022-09-01T16:24:56;1.30;;;1.00;;
3355;SDS011;1691;52.486;13.374;2022-09-01T16:27:31;3.77;;;1.43;;
3355;SDS011;1691;52.486;13.374;2022-09-01T16:30:06;4.77;;;1.20;;
3355;SDS011;1691;52.486;13.374;2022-09-01T16:32:43;3.23;;;0.70;;
3355;SDS011;1691;52.486;13.374;2022-09-01T16:35:13;20.63;;;2.10;;
3355;SDS011;1691;52.486;13.374;2022-09-01T16:40:48;10.73;;;1.37;;
3355;SDS011;1691;52.486;13.374;2022-09-01T16:49:07;2.07;;;1.43;;
3355;SDS011;1691;52.486;13.374;2022-09-01T16:52:00;1.63;;;0.83;;
3355;SDS011;1691;52.486;13.374;2022-09-01T16:59:59;1.00;;;0.90;;